Time;durP1;ratioP1;P1;durP2;ratioP2;P2;SDS_P1;SDS_P2;PMS_P1;PMS_P2;Temp;Humidity;BMP_temperature;BMP_pressure;BME280_temperature;BME280_humidity;BME280_pressure;Samples;Min_cycle;Max_cycle;Signal;HPM_P1;HPM_P2
2024/01/10 00:02:00;;;;;;;0.90;0.90;;;-1.40;95.70;;;;;;5054349;28;20029;-74
2024/01/10 00:04:26;;;;;;;0.28;0.28;;;-1.20;95.40;;;;;;5054690;28;20431;-73
2024/01/10 00:06:52;;;;;;;0.57;0.57;;;-1.20;94.90;;;;;;5054297;28;20080;-74
2024/01/10 00:09:18;;;;;;;0.20;0.20;;;-1.00;94.80;;;;;;5036988;28;20071;-73
2024/01/10 00:11:44;;;;;;;0.60;0.60;;;-1.10;94.60;;;;;;5054148;28;20037;-74
2024/01/10 00:14:10;;;;;;;0.40;0.40;;;-1.20;95.00;;;;;;5054232;28;20083;-74
2024/01/10 00:16:37;;;;;;;0.63;0.63;;;-1.30;95.20;;;;;;5053674;28;20420;-73
2024/01/10 00:19:02;;;;;;;0.30;0.30;;;-1.50;95.50;;;;;;5054413;28;20033;-74
2024/01/10 00:21:29;;;;;;;0.80;0.60;;;-1.60;95.80;;;;;;5054100;28;20081;-74
2024/01/10 00:23:55;;;;;;;0.28;0.28;;;-1.60;96.20;;;;;;5054119;28;20477;-73
2024/01/10 00:26:20;;;;;;;1.27;0.77;;;-1.40;96.00;;;;;;5053972;28;20059;-74
2024/01/10 00:28:46;;;;;;;1.00;1.00;;;-1.30;95.40;;;;;;5053843;28;20021;-73
2024/01/10 00:31:15;;;;;;;1.85;0.52;;;-1.40;95.70;;;;;;5053876;28;20493;-73
2024/01/10 00:33:41;;;;;;;2.15;1.00;;;-1.30;95.50;;;;;;5053567;28;20025;-73
2024/01/10 00:36:07;;;;;;;0.20;0.20;;;-1.20;95.60;;;;;;5053958;28;20040;-73
2024/01/10 00:38:33;;;;;;;0.30;0.30;;;-1.00;95.30;;;;;;5035532;28;20466;-73
2024/01/10 00:41:00;;;;;;;0.43;0.43;;;-1.10;95.20;;;;;;5053601;28;20021;-73
2024/01/10 00:43:26;;;;;;;2.38;2.17;;;-1.20;95.40;;;;;;5053830;28;20580;-73
2024/01/10 00:45:51;;;;;;;0.15;0.15;;;-1.30;95.40;;;;;;5053040;28;20033;-73
2024/01/10 00:48:18;;;;;;;0.68;0.65;;;-1.40;95.90;;;;;;5053748;28;20041;-73
2024/01/10 00:50:44;;;;;;;0.13;0.13;;;-1.40;95.70;;;;;;5053350;28;20112;-73
2024/01/10 00:53:10;;;;;;;0.30;0.30;;;-1.50;95.80;;;;;;5053933;28;20099;-73
2024/01/10 00:55:36;;;;;;;2.53;2.33;;;-1.60;96.30;;;;;;5053373;28;20048;-73
2024/01/10 00:58:02;;;;;;;0.75;0.75;;;-1.60;96.30;;;;;;5053505;28;20025;-73
2024/01/10 01:00:28;;;;;;;0.20;0.20;;;-1.70;96.70;;;;;;5053242;28;20029;-73
2024/01/10 01:02:54;;;;;;;0.20;0.20;;;-1.70;96.90;;;;;;5053317;28;20032;-73
2024/01/10 01:05:20;;;;;;;0.10;0.10;;;-1.60;97.00;;;;;;5053262;28;20025;-73
2024/01/10 01:07:46;;;;;;;0.10;0.10;;;-1.50;96.30;;;;;;5035430;28;20033;-73
2024/01/10 01:10:13;;;;;;;0.20;0.20;;;-1.50;96.60;;;;;;5053200;28;20020;-73
2024/01/10 01:12:39;;;;;;;0.20;0.20;;;-1.50;96.50;;;;;;5053274;28;20025;-73
2024/01/10 01:15:05;;;;;;;0.88;0.55;;;-1.50;96.20;;;;;;5035096;28;20033;-73
2024/01/10 01:17:31;;;;;;;0.20;0.20;;;-1.50;96.10;;;;;;5052952;28;20032;-73
2024/01/10 01:19:58;;;;;;;1.85;1.38;;;-1.60;96.30;;;;;;5052884;28;20020;-73
2024/01/10 01:22:24;;;;;;;0.10;0.10;;;-1.70;96.50;;;;;;5052960;28;20116;-73
2024/01/10 01:24:49;;;;;;;0.30;0.30;;;-1.80;96.70;;;;;;5053064;28;20430;-73
2024/01/10 01:27:15;;;;;;;0.20;0.20;;;-1.80;96.80;;;;;;5052886;28;20497;-73
2024/01/10 01:29:41;;;;;;;0.17;0.17;;;-1.60;96.70;;;;;;5052662;28;20024;-73
2024/01/10 01:32:06;;;;;;;2.35;1.00;;;-1.70;96.70;;;;;;5052843;28;20032;-73
2024/01/10 01:34:32;;;;;;;3.20;1.48;;;-1.70;96.80;;;;;;5051614;28;20024;-73
2024/01/10 01:36:58;;;;;;;0.28;0.28;;;-1.70;96.90;;;;;;5051142;28;20042;-73
2024/01/10 01:39:24;;;;;;;0.63;0.63;;;-1.60;96.80;;;;;;5035170;28;20048;-73
2024/01/10 01:41:51;;;;;;;0.40;0.40;;;-1.50;96.00;;;;;;5052131;28;20466;-73
2024/01/10 01:44:17;;;;;;;0.10;0.10;;;-1.70;96.10;;;;;;5052818;28;20017;-73
2024/01/10 01:46:42;;;;;;;0.20;0.20;;;-1.70;96.40;;;;;;5052527;28;20133;-73
2024/01/10 01:49:10;;;;;;;0.20;0.20;;;-1.70;96.60;;;;;;5052886;28;20107;-73
2024/01/10 01:51:37;;;;;;;0.20;0.20;;;-1.60;96.10;;;;;;5034553;28;20036;-73
2024/01/10 01:54:07;;;;;;;3.10;1.02;;;-1.80;96.20;;;;;;5034791;28;20465;-73
2024/01/10 01:56:33;;;;;;;0.22;0.22;;;-1.80;96.40;;;;;;5051025;28;20032;-73
2024/01/10 01:58:59;;;;;;;0.38;0.38;;;-1.90;96.30;;;;;;5051405;28;20039;-73
2024/01/10 02:01:26;;;;;;;0.20;0.20;;;-1.90;96.30;;;;;;5034529;28;20040;-74
2024/01/10 02:03:52;;;;;;;0.20;0.20;;;-1.90;96.50;;;;;;5034914;28;20035;-73
2024/01/10 02:06:18;;;;;;;0.50;0.50;;;-1.80;96.40;;;;;;5052104;28;20135;-73
2024/01/10 02:08:44;;;;;;;0.40;0.40;;;-1.70;96.40;;;;;;5052718;28;20444;-73
2024/01/10 02:11:10;;;;;;;1.52;1.50;;;-1.80;96.50;;;;;;5052358;28;20025;-73
2024/01/10 02:13:36;;;;;;;1.17;0.80;;;-1.70;96.20;;;;;;5052231;28;20488;-74
2024/01/10 02:16:03;;;;;;;0.22;0.22;;;-1.70;96.10;;;;;;5051019;28;20114;-73
2024/01/10 02:18:29;;;;;;;0.98;0.90;;;-1.60;96.40;;;;;;5052159;28;20041;-74
2024/01/10 02:20:55;;;;;;;4.50;0.45;;;-1.50;96.10;;;;;;5051029;28;20474;-73
2024/01/10 02:23:21;;;;;;;0.20;0.20;;;-1.80;96.10;;;;;;5034530;28;20021;-75
2024/01/10 02:25:47;;;;;;;4.85;1.52;;;-1.60;96.20;;;;;;5052044;28;20036;-73
2024/01/10 02:28:13;;;;;;;0.30;0.30;;;-1.80;95.80;;;;;;5052315;28;20029;-73
2024/01/10 02:30:38;;;;;;;0.30;0.30;;;-1.80;96.30;;;;;;5052181;28;20032;-73
2024/01/10 02:33:04;;;;;;;0.20;0.20;;;-1.90;96.40;;;;;;5052225;28;20074;-73
2024/01/10 02:35:32;;;;;;;0.57;0.57;;;-1.60;96.40;;;;;;5052180;28;20485;-73
2024/01/10 02:38:00;;;;;;;0.55;0.55;;;-1.60;95.80;;;;;;5050341;28;20017;-73
2024/01/10 02:40:26;;;;;;;0.40;0.40;;;-1.80;96.00;;;;;;5052438;28;20039;-73
2024/01/10 02:42:52;;;;;;;0.43;0.43;;;-1.70;95.80;;;;;;5050760;28;20052;-73
2024/01/10 02:45:18;;;;;;;0.20;0.20;;;-1.80;96.00;;;;;;5034405;28;20025;-73
2024/01/10 02:47:45;;;;;;;0.20;0.20;;;-1.80;96.10;;;;;;5051978;28;20048;-74
2024/01/10 02:50:10;;;;;;;0.20;0.20;;;-1.70;96.10;;;;;;5050948;28;20048;-74
2024/01/10 02:52:36;;;;;;;0.85;0.85;;;-1.70;95.90;;;;;;5051943;28;20028;-73
2024/01/10 02:55:03;;;;;;;0.20;0.20;;;-1.70;96.20;;;;;;5051693;28;20021;-74
2024/01/10 02:57:29;;;;;;;0.20;0.20;;;-2.00;96.40;;;;;;5050641;28;20017;-74
2024/01/10 02:59:55;;;;;;;0.10;0.10;;;-2.00;96.60;;;;;;5052020;28;20025;-74
2024/01/10 03:02:23;;;;;;;0.40;0.40;;;-1.90;96.60;;;;;;5052246;28;20104;-73
2024/01/10 03:04:49;;;;;;;0.17;0.17;;;-2.10;96.70;;;;;;5055530;28;20035;-73
2024/01/10 03:07:15;;;;;;;0.50;0.50;;;-1.90;97.30;;;;;;5037791;28;20390;-73
2024/01/10 03:09:41;;;;;;;0.77;0.77;;;-1.70;97.00;;;;;;5055114;28;20036;-74
2024/01/10 03:12:07;;;;;;;0.10;0.10;;;-1.80;96.60;;;;;;5055364;28;20017;-73
2024/01/10 03:14:34;;;;;;;0.20;0.20;;;-1.80;96.50;;;;;;5055455;28;20529;-73
2024/01/10 03:17:00;;;;;;;0.25;0.25;;;-1.90;96.90;;;;;;5055103;28;20032;-73
2024/01/10 03:19:26;;;;;;;0.17;0.17;;;-1.70;96.50;;;;;;5055644;28;20017;-73
2024/01/10 03:21:52;;;;;;;0.38;0.38;;;-1.60;96.00;;;;;;5020998;28;20545;-73
2024/01/10 03:24:18;;;;;;;0.20;0.20;;;-1.80;96.30;;;;;;5037016;28;20100;-74
2024/01/10 03:26:43;;;;;;;0.20;0.20;;;-1.80;96.60;;;;;;5055025;28;20187;-73
2024/01/10 03:29:09;;;;;;;0.20;0.20;;;-2.00;96.70;;;;;;5055083;28;20017;-74
2024/01/10 03:31:35;;;;;;;0.63;0.63;;;-2.00;96.60;;;;;;5055199;28;20432;-73
2024/01/10 03:34:01;;;;;;;0.30;0.30;;;-2.00;97.00;;;;;;5054919;28;20025;-74
2024/01/10 03:36:27;;;;;;;0.30;0.30;;;-2.10;96.90;;;;;;5055012;28;20570;-74
2024/01/10 03:38:53;;;;;;;0.20;0.20;;;-2.10;97.00;;;;;;5054602;28;20028;-74
2024/01/10 03:41:20;;;;;;;0.20;0.20;;;-1.90;96.70;;;;;;5055033;28;20033;-73
2024/01/10 03:43:46;;;;;;;0.10;0.10;;;-2.00;97.00;;;;;;5054809;28;20040;-74
2024/01/10 03:46:13;;;;;;;0.50;0.50;;;-2.10;97.10;;;;;;5055003;28;20037;-73
2024/01/10 03:48:47;;;;;;;0.13;0.13;;;-2.10;97.40;;;;;;5054742;28;20436;-74
2024/01/10 03:51:18;;;;;;;0.10;0.10;;;-2.20;97.10;;;;;;5054711;28;20025;-73
2024/01/10 03:53:45;;;;;;;0.20;0.20;;;-2.30;97.30;;;;;;5054421;28;20051;-73
2024/01/10 03:56:12;;;;;;;0.20;0.20;;;-2.40;97.90;;;;;;5053774;28;20033;-73
2024/01/10 03:58:38;;;;;;;0.20;0.20;;;-2.30;98.10;;;;;;5043976;28;20063;-73
2024/01/10 04:01:07;;;;;;;0.32;0.32;;;-2.30;98.20;;;;;;5053746;28;20063;-73
2024/01/10 04:03:34;;;;;;;0.10;0.10;;;-2.40;98.30;;;;;;5054160;28;20025;-73
2024/01/10 04:06:00;;;;;;;0.20;0.20;;;-2.30;98.20;;;;;;5036524;28;20025;-73
2024/01/10 04:08:27;;;;;;;0.52;0.52;;;-2.40;98.50;;;;;;5054476;28;20036;-73
2024/01/10 04:10:53;;;;;;;1.55;1.27;;;-2.30;98.40;;;;;;5054257;28;20378;-74
2024/01/10 04:13:19;;;;;;;0.13;0.13;;;-2.20;98.00;;;;;;5035233;28;20036;-73
2024/01/10 04:15:44;;;;;;;0.30;0.30;;;-1.90;97.50;;;;;;5053974;28;20035;-73
2024/01/10 04:18:10;;;;;;;0.15;0.15;;;-1.90;97.00;;;;;;5036183;28;20477;-73
2024/01/10 04:20:36;;;;;;;0.68;0.68;;;-2.00;97.10;;;;;;5054190;28;20384;-73
2024/01/10 04:23:02;;;;;;;0.30;0.30;;;-1.90;97.10;;;;;;5036126;28;20120;-73
2024/01/10 04:25:28;;;;;;;0.20;0.20;;;-2.00;97.00;;;;;;5053820;28;20113;-73
2024/01/10 04:27:55;;;;;;;1.05;1.05;;;-2.10;96.80;;;;;;5054104;28;20028;-73
2024/01/10 04:30:21;;;;;;;2.05;1.95;;;-2.10;97.40;;;;;;5053781;28;20017;-73
2024/01/10 04:32:46;;;;;;;0.25;0.25;;;-2.10;97.40;;;;;;5053732;28;20017;-73
2024/01/10 04:35:12;;;;;;;0.20;0.20;;;-2.30;97.80;;;;;;5053781;28;20032;-73
2024/01/10 04:37:39;;;;;;;1.25;1.17;;;-2.30;97.90;;;;;;5053534;28;20100;-73
2024/01/10 04:40:05;;;;;;;0.45;0.45;;;-2.10;97.70;;;;;;5035947;28;20052;-73
2024/01/10 04:42:31;;;;;;;0.22;0.22;;;-2.10;97.40;;;;;;5053692;28;20024;-73
2024/01/10 04:44:57;;;;;;;0.30;0.30;;;-2.10;97.50;;;;;;5053639;28;20368;-73
2024/01/10 04:47:23;;;;;;;0.30;0.30;;;-2.00;97.40;;;;;;5053228;28;20117;-73
2024/01/10 04:49:49;;;;;;;0.20;0.20;;;-1.90;97.70;;;;;;5053826;28;20051;-73
2024/01/10 04:52:15;;;;;;;0.20;0.20;;;-1.90;97.30;;;;;;5053449;28;20029;-73
2024/01/10 04:54:41;;;;;;;0.20;0.20;;;-2.00;97.70;;;;;;5053520;28;20024;-73
2024/01/10 04:57:10;;;;;;;0.30;0.30;;;-2.10;98.00;;;;;;5053322;28;20037;-73
2024/01/10 04:59:36;;;;;;;0.73;0.73;;;-2.20;97.80;;;;;;5053251;28;20025;-73
2024/01/10 05:02:02;;;;;;;0.40;0.40;;;-2.10;97.90;;;;;;5053169;28;20025;-74
2024/01/10 05:04:28;;;;;;;3.83;2.38;;;-2.20;98.00;;;;;;5053210;28;20509;-73
2024/01/10 05:06:54;;;;;;;0.20;0.20;;;-2.20;98.20;;;;;;5052967;28;20028;-73
2024/01/10 05:09:20;;;;;;;0.30;0.30;;;-2.30;98.60;;;;;;5053284;28;20021;-74
2024/01/10 05:11:51;;;;;;;0.73;0.73;;;-2.20;98.40;;;;;;5053200;28;20470;-74
2024/01/10 05:14:21;;;;;;;1.77;1.67;;;-2.40;98.50;;;;;;5053113;28;20025;-73
2024/01/10 05:16:48;;;;;;;1.33;1.33;;;-2.50;98.80;;;;;;5035081;28;20032;-73
2024/01/10 05:19:13;;;;;;;2.08;0.70;;;-2.50;98.90;;;;;;5053121;28;20033;-73
2024/01/10 05:21:40;;;;;;;0.85;0.85;;;-2.40;99.00;;;;;;5034936;28;20078;-75
2024/01/10 05:24:06;;;;;;;0.20;0.20;;;-2.20;98.80;;;;;;5052930;28;20103;-73
2024/01/10 05:26:31;;;;;;;0.30;0.30;;;-2.30;98.60;;;;;;5052422;28;20044;-72
2024/01/10 05:28:57;;;;;;;1.75;1.23;;;-2.10;98.20;;;;;;5052985;28;20025;-74
2024/01/10 05:31:23;;;;;;;1.38;1.27;;;-2.30;98.20;;;;;;5051705;28;20070;-75
2024/01/10 05:33:49;;;;;;;0.20;0.20;;;-2.20;98.40;;;;;;5052558;28;20022;-74
2024/01/10 05:36:15;;;;;;;1.45;0.65;;;-2.20;98.50;;;;;;5052740;28;20029;-73
2024/01/10 05:38:41;;;;;;;0.93;0.85;;;-2.30;98.50;;;;;;5052636;28;20468;-73
2024/01/10 05:41:07;;;;;;;0.20;0.20;;;-2.40;98.50;;;;;;5052735;28;20069;-74
2024/01/10 05:43:33;;;;;;;0.20;0.20;;;-2.40;98.80;;;;;;5052779;28;20028;-72
2024/01/10 05:45:59;;;;;;;0.20;0.20;;;-2.40;99.30;;;;;;5052491;28;20017;-73
2024/01/10 05:48:25;;;;;;;0.20;0.20;;;-2.30;99.30;;;;;;5034630;28;20037;-74
2024/01/10 05:50:51;;;;;;;0.22;0.22;;;-2.30;99.10;;;;;;5051437;28;20052;-73
2024/01/10 05:53:17;;;;;;;0.20;0.20;;;-2.30;98.90;;;;;;5052688;28;20082;-73
2024/01/10 05:55:44;;;;;;;0.47;0.47;;;-2.50;99.20;;;;;;5052936;28;20420;-73
2024/01/10 05:58:11;;;;;;;0.40;0.40;;;-2.50;99.70;;;;;;5052345;28;20076;-72
2024/01/10 06:00:37;;;;;;;0.20;0.20;;;-2.40;99.40;;;;;;5052565;28;20033;-73
2024/01/10 06:03:03;;;;;;;0.20;0.20;;;-2.50;99.30;;;;;;5051957;28;20021;-73
2024/01/10 06:05:28;;;;;;;0.20;0.20;;;-2.40;99.30;;;;;;5033463;28;20025;-72
2024/01/10 06:07:54;;;;;;;0.30;0.30;;;-2.50;99.70;;;;;;5051021;28;20033;-72
2024/01/10 06:10:20;;;;;;;1.23;1.17;;;-2.40;99.60;;;;;;5052427;28;20043;-73
2024/01/10 06:12:46;;;;;;;0.20;0.20;;;-2.50;99.60;;;;;;5051097;28;20032;-72
2024/01/10 06:15:11;;;;;;;0.30;0.30;;;-2.40;99.70;;;;;;5052344;28;20577;-74
2024/01/10 06:17:38;;;;;;;4.10;1.35;;;-2.50;99.70;;;;;;5051764;28;20033;-73
2024/01/10 06:20:04;;;;;;;0.20;0.20;;;-2.50;99.80;;;;;;5052396;28;20025;-72
2024/01/10 06:22:30;;;;;;;0.47;0.47;;;-2.60;99.90;;;;;;5052114;28;20025;-73
2024/01/10 06:24:55;;;;;;;0.25;0.25;;;-2.60;99.90;;;;;;5052488;28;20040;-73
2024/01/10 06:27:22;;;;;;;0.20;0.20;;;-2.60;99.90;;;;;;5050839;28;20465;-72
2024/01/10 06:29:47;;;;;;;0.10;0.10;;;-2.60;99.80;;;;;;5050910;28;20056;-72
2024/01/10 06:32:17;;;;;;;0.20;0.20;;;-2.80;99.90;;;;;;5051450;28;20025;-73
2024/01/10 06:34:42;;;;;;;0.52;0.52;;;-2.80;99.90;;;;;;5044916;28;20048;-73
2024/01/10 06:37:08;;;;;;;0.13;0.13;;;-2.90;99.90;;;;;;5052923;28;20454;-72
2024/01/10 06:39:34;;;;;;;0.20;0.20;;;-2.60;99.90;;;;;;5054767;28;20024;-72
2024/01/10 06:42:00;;;;;;;0.10;0.10;;;-2.70;99.90;;;;;;5055978;28;20070;-72
2024/01/10 06:44:27;;;;;;;0.35;0.35;;;-2.60;99.90;;;;;;5037904;28;20367;-72
2024/01/10 06:46:53;;;;;;;0.20;0.20;;;-2.70;99.90;;;;;;5056058;28;20045;-73
2024/01/10 06:49:20;;;;;;;0.30;0.30;;;-2.70;99.90;;;;;;5055731;28;20142;-73
2024/01/10 06:51:45;;;;;;;1.17;1.05;;;-2.60;99.90;;;;;;5054787;28;20108;-73
2024/01/10 06:54:11;;;;;;;2.53;1.08;;;-2.60;99.90;;;;;;5055717;28;20511;-73
2024/01/10 06:56:37;;;;;;;11.70;1.65;;;-2.50;99.90;;;;;;5055755;28;20025;-73
2024/01/10 06:59:03;;;;;;;0.30;0.30;;;-2.40;99.90;;;;;;5055693;28;20020;-72
2024/01/10 07:01:28;;;;;;;0.20;0.20;;;-2.50;99.90;;;;;;5056900;28;20028;-72
2024/01/10 07:03:59;;;;;;;0.20;0.20;;;-2.60;99.90;;;;;;5023575;28;20018;-73
2024/01/10 07:06:25;;;;;;;0.52;0.52;;;-2.50;99.90;;;;;;5057291;28;20033;-73
2024/01/10 07:08:51;;;;;;;0.50;0.50;;;-2.60;99.90;;;;;;5055624;28;20035;-72
2024/01/10 07:11:17;;;;;;;0.60;0.60;;;-2.60;99.90;;;;;;5055419;28;20555;-72
2024/01/10 07:13:44;;;;;;;0.40;0.40;;;-2.60;99.90;;;;;;5037627;28;20501;-73
2024/01/10 07:16:10;;;;;;;0.20;0.20;;;-2.70;99.90;;;;;;5037070;28;20025;-72
2024/01/10 07:18:37;;;;;;;0.52;0.52;;;-2.70;99.90;;;;;;5055073;28;20500;-72
2024/01/10 07:21:03;;;;;;;0.10;0.10;;;-2.70;99.90;;;;;;5055470;28;20508;-73
2024/01/10 07:23:29;;;;;;;0.38;0.38;;;-2.60;99.90;;;;;;5055088;28;20021;-73
2024/01/10 07:25:54;;;;;;;1.05;0.43;;;-2.50;99.90;;;;;;5055119;28;20025;-72
2024/01/10 07:28:20;;;;;;;1.95;1.02;;;-2.70;99.90;;;;;;5054938;28;20025;-72
2024/01/10 07:30:46;;;;;;;0.20;0.20;;;-2.50;99.90;;;;;;5054923;28;20108;-72
2024/01/10 07:33:12;;;;;;;0.85;0.80;;;-2.50;99.90;;;;;;5055025;28;20112;-72
2024/01/10 07:35:38;;;;;;;0.22;0.22;;;-2.60;99.90;;;;;;5048141;28;20022;-75
2024/01/10 07:38:07;;;;;;;0.28;0.28;;;-2.60;99.90;;;;;;5045443;28;20051;-73
2024/01/10 07:40:33;;;;;;;1.25;1.13;;;-2.60;99.90;;;;;;5052762;28;20052;-72
2024/01/10 07:42:59;;;;;;;0.40;0.40;;;-2.70;99.90;;;;;;5054715;28;20056;-73
2024/01/10 07:45:25;;;;;;;0.88;0.88;;;-2.70;99.90;;;;;;5054499;28;20052;-72
2024/01/10 07:47:51;;;;;;;0.85;0.85;;;-2.50;99.90;;;;;;5054299;28;20541;-72
2024/01/10 07:50:17;;;;;;;0.40;0.40;;;-2.40;99.90;;;;;;5054678;28;20021;-72
2024/01/10 07:52:44;;;;;;;1.92;1.83;;;-2.40;99.90;;;;;;5054608;28;20088;-72
2024/01/10 07:55:09;;;;;;;9.95;0.80;;;-2.80;99.90;;;;;;5054770;28;20529;-73
2024/01/10 07:57:36;;;;;;;1.67;0.70;;;-2.60;99.90;;;;;;5054602;28;20112;-72
2024/01/10 08:00:10;;;;;;;0.30;0.30;;;-2.70;99.90;;;;;;5036323;28;20029;-72
2024/01/10 08:02:36;;;;;;;1.95;1.60;;;-2.60;99.90;;;;;;5036578;28;20063;-72
2024/01/10 08:05:08;;;;;;;7.05;0.88;;;-2.60;99.90;;;;;;5036758;28;20029;-72
2024/01/10 08:07:38;;;;;;;8.85;1.00;;;-2.50;99.90;;;;;;5054452;28;20416;-72
2024/01/10 08:10:13;;;;;;;0.30;0.30;;;-2.70;99.90;;;;;;5022616;28;20070;-74
2024/01/10 08:12:41;;;;;;;0.57;0.57;;;-2.70;99.90;;;;;;5054458;28;20513;-74
2024/01/10 08:15:07;;;;;;;2.55;1.27;;;-2.60;99.90;;;;;;5052386;28;20570;-74
2024/01/10 08:17:34;;;;;;;0.47;0.47;;;-2.70;99.90;;;;;;5054341;28;20029;-74
2024/01/10 08:20:03;;;;;;;1.05;1.05;;;-2.50;99.90;;;;;;5036132;28;20083;-74
2024/01/10 08:22:29;;;;;;;0.40;0.40;;;-2.60;99.90;;;;;;5054381;28;20029;-74
2024/01/10 08:24:55;;;;;;;0.30;0.30;;;-2.70;99.90;;;;;;5036068;28;20032;-74
2024/01/10 08:27:21;;;;;;;0.20;0.20;;;-2.70;99.90;;;;;;5053991;28;20045;-74
2024/01/10 08:29:47;;;;;;;14.40;12.18;;;-2.60;99.90;;;;;;5053724;28;20025;-74
2024/01/10 08:32:14;;;;;;;0.20;0.20;;;-2.50;99.90;;;;;;5019617;28;20385;-74
2024/01/10 08:34:40;;;;;;;0.20;0.20;;;-2.50;99.90;;;;;;5052675;28;20454;-74
2024/01/10 08:37:06;;;;;;;0.20;0.20;;;-2.30;99.90;;;;;;5053846;28;20027;-74
2024/01/10 08:39:32;;;;;;;0.35;0.35;;;-2.40;99.90;;;;;;5053881;28;20021;-73
2024/01/10 08:41:58;;;;;;;5.32;1.58;;;-2.40;99.90;;;;;;5053565;28;20445;-73
2024/01/10 08:44:24;;;;;;;0.32;0.32;;;-2.40;99.90;;;;;;5052350;28;20470;-73
2024/01/10 08:46:53;;;;;;;1.35;1.08;;;-2.20;99.90;;;;;;5053592;28;20040;-73
2024/01/10 08:49:19;;;;;;;0.40;0.40;;;-2.10;99.90;;;;;;5053717;28;20013;-73
2024/01/10 08:51:46;;;;;;;0.20;0.20;;;-2.00;99.90;;;;;;5053516;28;20107;-73
2024/01/10 08:54:16;;;;;;;2.92;0.90;;;-2.10;99.90;;;;;;5052406;28;20025;-73
2024/01/10 08:56:46;;;;;;;2.47;2.28;;;-2.00;99.90;;;;;;5053438;28;20541;-73
2024/01/10 08:59:13;;;;;;;0.57;0.57;;;-1.90;99.90;;;;;;5018530;28;20033;-73
2024/01/10 09:01:39;;;;;;;2.28;0.75;;;-1.90;99.90;;;;;;5035503;28;20127;-73
2024/01/10 09:04:05;;;;;;;1.15;0.70;;;-2.00;99.90;;;;;;5053477;28;20128;-73
2024/01/10 09:06:35;;;;;;;1.55;1.45;;;-1.70;99.90;;;;;;5035114;28;20036;-73
2024/01/10 09:09:01;;;;;;;5.82;1.27;;;-1.60;99.90;;;;;;5035536;28;20021;-73
2024/01/10 09:11:28;;;;;;;4.15;1.88;;;-1.40;99.90;;;;;;5052792;28;20469;-73
2024/01/10 09:13:54;;;;;;;3.20;0.82;;;-1.40;99.90;;;;;;5053380;28;20021;-73
2024/01/10 09:16:20;;;;;;;0.73;0.73;;;-1.30;99.70;;;;;;5052846;28;20039;-73
2024/01/10 09:18:45;;;;;;;5.82;0.63;;;-1.20;99.40;;;;;;5034929;28;20053;-73
2024/01/10 09:21:12;;;;;;;0.13;0.13;;;-1.00;99.00;;;;;;5053549;28;20083;-74
2024/01/10 09:23:37;;;;;;;0.63;0.63;;;-0.80;98.30;;;;;;5052823;28;20025;-73
2024/01/10 09:26:04;;;;;;;1.75;1.38;;;-0.40;98.40;;;;;;5034766;28;20132;-74
2024/01/10 09:28:29;;;;;;;0.30;0.30;;;-0.30;97.70;;;;;;5035189;28;20052;-74
2024/01/10 09:30:56;;;;;;;2.08;1.30;;;-0.20;97.10;;;;;;5051752;28;20083;-74
2024/01/10 09:33:22;;;;;;;0.47;0.47;;;-0.10;97.30;;;;;;5018567;28;20021;-73
2024/01/10 09:35:48;;;;;;;1.75;1.65;;;-0.20;97.00;;;;;;5051767;28;20082;-73
2024/01/10 09:38:15;;;;;;;0.13;0.13;;;-0.20;97.40;;;;;;5052800;28;20017;-73
2024/01/10 09:40:40;;;;;;;2.75;2.65;;;-0.20;97.60;;;;;;5052527;28;20040;-74
2024/01/10 09:43:07;;;;;;;1.60;1.50;;;0.20;97.40;;;;;;5035031;28;20126;-74
2024/01/10 09:45:36;;;;;;;0.68;0.68;;;0.40;96.60;;;;;;5052374;28;20029;-74
2024/01/10 09:48:02;;;;;;;1.85;0.95;;;0.60;96.40;;;;;;5035012;28;20041;-74
2024/01/10 09:50:28;;;;;;;0.10;0.10;;;1.00;95.90;;;;;;5052783;28;20035;-73
2024/01/10 09:53:05;;;;;;;2.28;1.65;;;1.00;95.50;;;;;;5052401;28;20024;-73
2024/01/10 09:55:34;;;;;;;1.83;1.70;;;0.90;95.90;;;;;;5052292;28;20112;-73
2024/01/10 09:58:05;;;;;;;0.30;0.30;;;1.00;95.40;;;;;;5052430;28;20025;-73
2024/01/10 10:00:33;;;;;;;0.10;0.10;;;0.90;95.90;;;;;;5035137;28;20025;-74
2024/01/10 10:03:00;;;;;;;0.30;0.30;;;1.50;95.70;;;;;;5051148;28;20025;-74
2024/01/10 10:05:27;;;;;;;0.85;0.85;;;1.90;95.00;;;;;;5052421;28;20369;-72
2024/01/10 10:07:57;;;;;;;1.85;1.45;;;2.20;94.40;;;;;;5034765;28;20029;-74
2024/01/10 10:10:23;;;;;;;0.88;0.88;;;2.20;93.80;;;;;;5051307;28;20021;-73
2024/01/10 10:12:52;;;;;;;4.97;1.08;;;2.10;94.10;;;;;;5038693;28;20079;-74
2024/01/10 10:15:25;;;;;;;2.15;1.95;;;2.40;93.80;;;;;;5056584;28;20101;-74
2024/01/10 10:17:53;;;;;;;3.33;0.90;;;2.60;93.30;;;;;;5038588;28;20059;-74
2024/01/10 10:20:24;;;;;;;0.52;0.52;;;2.50;93.10;;;;;;5038865;28;20029;-73
2024/01/10 10:23:17;;;;;;;1.60;1.00;;;2.60;93.20;;;;;;5056693;28;20492;-74
2024/01/10 10:25:43;;;;;;;0.70;0.70;;;3.20;92.90;;;;;;5044952;28;20572;-74
2024/01/10 10:28:09;;;;;;;2.33;1.27;;;3.10;92.50;;;;;;5055225;28;20021;-73
2024/01/10 10:30:35;;;;;;;1.98;1.88;;;3.20;92.20;;;;;;5056471;28;20421;-73
2024/01/10 10:33:02;;;;;;;3.00;1.45;;;3.60;91.90;;;;;;5056332;28;20029;-74
2024/01/10 10:35:28;;;;;;;2.05;1.95;;;3.60;91.90;;;;;;5056034;28;20025;-74
2024/01/10 10:37:54;;;;;;;4.40;0.95;;;4.10;91.70;;;;;;5038309;28;20028;-74
2024/01/10 10:40:22;;;;;;;1.00;1.00;;;3.90;91.30;;;;;;5055689;28;20046;-74
2024/01/10 10:42:54;;;;;;;0.73;0.73;;;3.80;91.40;;;;;;5055847;28;20072;-73
2024/01/10 10:45:25;;;;;;;2.50;2.40;;;4.00;91.00;;;;;;5056042;28;20029;-73
2024/01/10 10:47:57;;;;;;;1.70;1.58;;;4.00;91.20;;;;;;5054430;28;20049;-74
2024/01/10 10:50:27;;;;;;;2.80;2.60;;;4.70;90.90;;;;;;5038166;28;20025;-74
2024/01/10 10:52:55;;;;;;;1.60;1.50;;;5.30;90.20;;;;;;5055445;28;20475;-74
2024/01/10 10:55:23;;;;;;;0.57;0.57;;;5.30;89.90;;;;;;5055877;28;20155;-73
2024/01/10 10:57:51;;;;;;;0.85;0.65;;;4.80;89.60;;;;;;5021286;28;20420;-73
2024/01/10 11:00:27;;;;;;;0.50;0.50;;;4.60;89.10;;;;;;5055816;28;20485;-73
2024/01/10 11:02:57;;;;;;;2.17;2.08;;;4.70;90.60;;;;;;5021021;28;20033;-73
2024/01/10 11:05:24;;;;;;;0.98;0.95;;;5.40;89.70;;;;;;5055860;28;20025;-74
2024/01/10 11:07:52;;;;;;;0.20;0.20;;;6.10;88.60;;;;;;5055032;28;20045;-73
2024/01/10 11:10:27;;;;;;;0.13;0.13;;;6.70;87.30;;;;;;5055694;28;20033;-73
2024/01/10 11:13:09;;;;;;;0.10;0.10;;;6.70;85.80;;;;;;5037937;28;20388;-73
2024/01/10 11:15:55;;;;;;;0.30;0.30;;;6.70;85.40;;;;;;5055341;28;20032;-73
2024/01/10 11:18:42;;;;;;;0.52;0.52;;;5.50;85.70;;;;;;5055265;28;20025;-73
2024/01/10 11:21:25;;;;;;;1.25;1.15;;;5.40;86.20;;;;;;5055624;28;20087;-73
2024/01/10 11:24:00;;;;;;;1.95;1.40;;;5.10;86.70;;;;;;5054282;28;20024;-73
2024/01/10 11:26:26;;;;;;;2.08;1.27;;;4.90;87.50;;;;;;5053760;28;20033;-73
2024/01/10 11:28:52;;;;;;;0.52;0.52;;;4.60;87.90;;;;;;5054867;28;20478;-73
2024/01/10 11:31:31;;;;;;;0.77;0.60;;;5.30;88.80;;;;;;5055446;28;20029;-73
2024/01/10 11:33:59;;;;;;;6.18;3.47;;;5.30;85.70;;;;;;5054979;28;20086;-73
2024/01/10 11:36:26;;;;;;;1.27;1.17;;;5.60;86.40;;;;;;5054850;28;20029;-73
2024/01/10 11:38:53;;;;;;;0.73;0.73;;;6.20;84.60;;;;;;5054814;28;20517;-73
2024/01/10 11:41:36;;;;;;;0.52;0.52;;;6.90;83.70;;;;;;5054963;28;20028;-73
2024/01/10 11:44:28;;;;;;;0.68;0.68;;;6.60;82.90;;;;;;5054643;28;20048;-73
2024/01/10 11:46:56;;;;;;;1.55;1.08;;;7.00;83.30;;;;;;5026506;28;20068;-73
2024/01/10 11:49:25;;;;;;;4.97;4.18;;;7.60;81.60;;;;;;5051115;28;20095;-73
2024/01/10 11:51:56;;;;;;;3.15;1.63;;;7.80;80.00;;;;;;5044714;28;20037;-74
2024/01/10 11:54:38;;;;;;;0.93;0.73;;;7.70;79.80;;;;;;5054509;28;20037;-73
2024/01/10 11:57:11;;;;;;;0.55;0.55;;;7.70;81.00;;;;;;5053496;28;20063;-73
2024/01/10 11:59:40;;;;;;;5.78;2.05;;;8.00;80.00;;;;;;5054296;28;20032;-73
2024/01/10 12:02:06;;;;;;;2.13;1.13;;;8.40;79.70;;;;;;5036797;28;20029;-73
2024/01/10 12:04:32;;;;;;;1.23;1.23;;;8.70;78.90;;;;;;5054322;28;20024;-73
2024/01/10 12:06:58;;;;;;;0.30;0.30;;;8.80;77.80;;;;;;5054150;28;20041;-73
2024/01/10 12:09:24;;;;;;;5.53;5.10;;;8.90;77.60;;;;;;5054240;28;20477;-73
2024/01/10 12:11:50;;;;;;;0.65;0.65;;;9.20;76.90;;;;;;5054600;28;20094;-73
2024/01/10 12:14:17;;;;;;;0.93;0.93;;;9.20;76.10;;;;;;5020175;28;20025;-73
2024/01/10 12:16:43;;;;;;;0.82;0.82;;;9.00;76.60;;;;;;5053753;28;20494;-74
2024/01/10 12:19:08;;;;;;;1.42;1.00;;;9.50;76.70;;;;;;5053537;28;20041;-73
2024/01/10 12:21:34;;;;;;;0.68;0.68;;;9.60;76.60;;;;;;5053892;28;20029;-73
2024/01/10 12:24:00;;;;;;;24.60;4.50;;;9.80;74.70;;;;;;5054270;28;20381;-73
2024/01/10 12:26:27;;;;;;;0.50;0.50;;;10.20;75.00;;;;;;5053887;28;20083;-73
2024/01/10 12:29:00;;;;;;;1.40;0.98;;;10.40;75.00;;;;;;5054261;28;20029;-73
2024/01/10 12:31:29;;;;;;;0.20;0.20;;;10.90;73.40;;;;;;5054542;28;20037;-74
2024/01/10 12:33:55;;;;;;;4.38;0.40;;;11.20;72.90;;;;;;5040139;28;20029;-74
2024/01/10 12:36:21;;;;;;;0.30;0.30;;;10.50;72.70;;;;;;5053263;28;20048;-75
2024/01/10 12:38:47;;;;;;;1.52;1.33;;;10.00;73.20;;;;;;5053763;28;20509;-74
2024/01/10 12:41:18;;;;;;;1.65;1.55;;;10.70;73.70;;;;;;5053913;28;20104;-74
2024/01/10 12:43:50;;;;;;;0.80;0.80;;;11.30;72.80;;;;;;5053798;28;20432;-74
2024/01/10 12:46:16;;;;;;;;;;;11.50;71.80;;;;;;5036356;28;20116;-74
2024/01/10 12:48:42;;;;;;;0.10;0.10;;;11.60;70.90;;;;;;5053817;28;20355;-74